createdAt,value
2019-03-22T00:03:26.641Z,8.97
2019-03-22T00:08:29.312Z,8.93
2019-03-22T00:13:32.001Z,8.91
2019-03-22T00:18:36.404Z,9.06
2019-03-22T00:23:38.979Z,9.08
2019-03-22T00:28:41.832Z,9.26
2019-03-22T00:33:44.454Z,9.56
2019-03-22T00:38:47.253Z,9.52
2019-03-22T00:43:49.804Z,9.81
2019-03-22T00:48:52.405Z,9.70
2019-03-22T00:53:54.985Z,9.83
2019-03-22T00:59:00.459Z,9.78
2019-03-22T01:04:03.084Z,9.85
2019-03-22T01:09:05.900Z,9.84
2019-03-22T01:14:08.459Z,9.97
2019-03-22T01:19:11.084Z,9.77
2019-03-22T01:24:13.858Z,9.38
2019-03-22T01:29:19.270Z,9.81
2019-03-22T01:34:21.836Z,9.70
2019-03-22T01:39:27.307Z,9.65
2019-03-22T01:44:29.832Z,9.66
2019-03-22T01:49:32.365Z,9.19
2019-03-22T01:54:34.958Z,9.51
2019-03-22T01:59:37.730Z,9.11
2019-03-22T02:04:40.474Z,9.42
2019-03-22T02:09:44.531Z,9.05
2019-03-22T02:14:47.082Z,9.09
2019-03-22T02:19:51.462Z,9.32
2019-03-22T02:24:54.001Z,9.51
2019-03-22T02:29:56.645Z,9.48
2019-03-22T02:34:59.219Z,9.45
2019-03-22T02:40:02.155Z,9.51
2019-03-22T02:45:06.392Z,9.43
2019-03-22T02:50:18.161Z,9.32
2019-03-22T02:55:18.979Z,9.07
2019-03-22T03:00:21.803Z,9.22
2019-03-22T03:05:24.356Z,9.31
2019-03-22T03:10:29.040Z,9.16
2019-03-22T03:15:31.576Z,9.14
2019-03-22T03:20:34.235Z,8.94
2019-03-22T03:25:36.783Z,8.82
2019-03-22T03:30:39.436Z,9.04
2019-03-22T03:35:41.975Z,8.89
2019-03-22T03:40:44.512Z,9.07
2019-03-22T03:45:47.092Z,8.69
2019-03-22T03:50:49.648Z,8.84
2019-03-22T03:55:52.277Z,9.13
2019-03-22T04:00:57.803Z,8.85
2019-03-22T04:06:00.387Z,9.07
2019-03-22T04:11:03.006Z,8.98
2019-03-22T04:16:05.543Z,8.99
2019-03-22T04:21:10.009Z,8.97
2019-03-22T04:26:12.560Z,8.91
2019-03-22T04:31:15.251Z,8.65
2019-03-22T04:36:20.224Z,9.06
2019-03-22T04:41:22.773Z,8.81
2019-03-22T04:46:27.090Z,9.02
2019-03-22T04:51:30.241Z,8.93
2019-03-22T04:56:35.885Z,9.00
2019-03-22T05:01:41.378Z,9.07
2019-03-22T05:06:45.327Z,9.23
2019-03-22T05:11:48.606Z,9.08
2019-03-22T05:16:54.001Z,9.07
2019-03-22T05:22:01.479Z,9.08
2019-03-22T05:27:05.916Z,9.24
2019-03-22T05:32:10.730Z,9.28
2019-03-22T05:37:15.701Z,9.05
2019-03-22T05:42:18.295Z,9.20
2019-03-22T05:47:21.153Z,9.32
2019-03-22T05:52:23.739Z,8.96
2019-03-22T05:57:26.433Z,9.25
2019-03-22T06:02:29.003Z,9.24
2019-03-22T06:07:31.575Z,9.27
2019-03-22T06:12:34.134Z,9.25
2019-03-22T06:17:36.704Z,9.05
2019-03-22T06:22:39.302Z,9.41
2019-03-22T06:27:41.957Z,9.38
2019-03-22T06:32:44.572Z,9.56
2019-03-22T06:37:47.403Z,9.58
2019-03-22T06:42:50.039Z,9.35
2019-03-22T06:47:52.603Z,9.49
2019-03-22T06:52:55.364Z,9.66
2019-03-22T06:57:58.089Z,9.36
2019-03-22T07:03:00.645Z,9.75
2019-03-22T07:08:03.335Z,9.54
2019-03-22T07:13:05.884Z,10.01
2019-03-22T07:18:08.483Z,9.63
2019-03-22T07:23:14.097Z,9.51
2019-03-22T07:28:16.784Z,9.99
2019-03-22T07:33:19.421Z,9.94
2019-03-22T07:38:23.303Z,10.03
2019-03-22T07:43:26.057Z,10.11
2019-03-22T07:48:30.005Z,10.40
2019-03-22T07:53:32.712Z,10.11
2019-03-22T07:58:35.269Z,10.28
2019-03-22T08:03:37.887Z,10.55
2019-03-22T08:08:40.472Z,10.52
2019-03-22T08:13:43.011Z,10.66
2019-03-22T08:18:45.546Z,10.81
2019-03-22T08:23:48.070Z,10.48
2019-03-22T08:28:50.667Z,10.34
2019-03-22T08:33:53.220Z,10.30
2019-03-22T08:38:55.857Z,10.61
2019-03-22T08:43:58.528Z,11.16
2019-03-22T08:49:01.419Z,11.06
2019-03-22T08:54:03.992Z,10.73
2019-03-22T08:59:06.884Z,10.90
2019-03-22T09:04:09.587Z,11.54
2019-03-22T09:09:12.346Z,11.14
2019-03-22T09:14:14.934Z,11.38
2019-03-22T09:19:17.469Z,11.56
2019-03-22T09:24:23.035Z,11.35
2019-03-22T09:29:25.805Z,11.85
2019-03-22T09:34:33.489Z,12.02
2019-03-22T09:39:35.690Z,12.65
2019-03-22T09:44:43.121Z,12.69
2019-03-22T09:49:43.067Z,12.26
2019-03-22T09:54:45.577Z,12.49
2019-03-22T09:59:48.454Z,12.49
2019-03-22T10:04:50.965Z,12.10
2019-03-22T10:09:56.177Z,12.67
2019-03-22T10:14:58.844Z,12.57
2019-03-22T10:20:01.658Z,12.35
2019-03-22T10:25:06.187Z,13.06
2019-03-22T10:30:09.548Z,12.83
2019-03-22T10:35:25.028Z,13.26
2019-03-22T10:40:16.990Z,13.82
2019-03-22T10:45:22.132Z,13.68
2019-03-22T10:50:24.925Z,13.94
2019-03-22T10:55:30.412Z,14.18
2019-03-22T11:00:32.483Z,13.29
2019-03-22T11:05:35.074Z,13.65
2019-03-22T11:10:39.531Z,13.65
2019-03-22T11:15:48.445Z,13.65
2019-03-22T11:20:46.892Z,13.65
2019-03-22T11:25:49.463Z,13.70
2019-03-22T11:31:04.466Z,13.30
2019-03-22T11:36:00.114Z,13.30
2019-03-22T11:41:02.775Z,13.73
2019-03-22T11:46:05.300Z,13.73
2019-03-22T11:51:07.899Z,14.01
2019-03-22T11:56:12.344Z,14.05
2019-03-22T12:01:20.260Z,14.20
2019-03-22T12:06:19.489Z,14.45
2019-03-22T12:11:22.326Z,14.49
2019-03-22T12:16:27.670Z,14.69
2019-03-22T12:21:33.067Z,14.66
2019-03-22T12:26:35.676Z,14.83
2019-03-22T12:31:39.535Z,14.89
2019-03-22T12:36:42.490Z,15.11
2019-03-22T12:41:45.360Z,15.07
2019-03-22T12:46:49.268Z,15.15
2019-03-22T12:51:58.437Z,15.14
2019-03-22T12:57:02.132Z,15.17
2019-03-22T13:02:04.789Z,15.10
2019-03-22T13:07:12.439Z,15.19
2019-03-22T13:12:15.663Z,15.40
2019-03-22T13:17:21.793Z,15.41
2019-03-22T13:22:24.487Z,15.55
2019-03-22T13:27:27.095Z,15.43
2019-03-22T13:32:31.223Z,15.66
2019-03-22T13:37:33.895Z,15.50
2019-03-22T13:42:36.445Z,15.58
2019-03-22T13:47:39.367Z,15.74
2019-03-22T13:52:42.112Z,15.98
2019-03-22T13:57:44.792Z,15.67
2019-03-22T14:02:47.530Z,15.82
2019-03-22T14:07:50.589Z,15.88
2019-03-22T14:12:53.147Z,15.87
2019-03-22T14:17:57.218Z,15.88
2019-03-22T14:22:59.758Z,16.35
2019-03-22T14:28:02.625Z,16.15
2019-03-22T14:33:13.400Z,16.06
2019-03-22T14:38:12.199Z,16.42
2019-03-22T14:43:17.571Z,16.15
2019-03-22T14:48:21.466Z,16.14
2019-03-22T14:53:27.143Z,16.19
2019-03-22T14:58:34.459Z,16.26
2019-03-22T15:03:40.103Z,16.27
2019-03-22T15:08:43.041Z,16.66
2019-03-22T15:13:53.455Z,16.25
2019-03-22T15:19:14.395Z,16.47
2019-03-22T15:24:35.829Z,16.17
2019-03-22T15:30:03.725Z,16.40
2019-03-22T15:35:31.315Z,16.66
2019-03-22T15:40:37.408Z,16.29
2019-03-22T15:45:39.969Z,16.65
2019-03-22T15:50:42.521Z,16.53
2019-03-22T15:55:45.135Z,16.32
2019-03-22T16:00:47.854Z,16.34
2019-03-22T16:05:53.315Z,16.30
2019-03-22T16:10:57.912Z,16.08
2019-03-22T16:16:00.458Z,16.28
2019-03-22T16:21:03.301Z,16.04
2019-03-22T16:26:05.893Z,16.03
2019-03-22T16:31:08.653Z,16.00
2019-03-22T16:36:11.211Z,15.99
2019-03-22T16:41:13.798Z,15.97
2019-03-22T16:46:16.371Z,15.96
2019-03-22T16:51:18.963Z,15.87
2019-03-22T16:56:21.518Z,15.70
2019-03-22T17:01:24.326Z,15.75
2019-03-22T17:06:28.437Z,15.68
2019-03-22T17:11:31.183Z,15.46
2019-03-22T17:16:33.728Z,15.49
2019-03-22T17:21:39.574Z,15.48
2019-03-22T17:26:42.454Z,15.24
2019-03-22T17:31:45.307Z,15.10
2019-03-22T17:36:47.844Z,15.10
2019-03-22T17:41:50.402Z,15.02
2019-03-22T17:46:52.941Z,15.08
2019-03-22T17:51:58.727Z,14.83
2019-03-22T17:57:01.290Z,14.74
2019-03-22T18:02:04.046Z,14.41
2019-03-22T18:07:12.653Z,14.20
2019-03-22T18:12:15.240Z,13.67
2019-03-22T18:17:23.113Z,13.19
2019-03-22T18:22:25.759Z,12.92
2019-03-22T18:27:30.446Z,12.52
2019-03-22T18:32:33.006Z,12.41
2019-03-22T18:37:35.671Z,11.99
2019-03-22T18:42:38.215Z,12.03
2019-03-22T18:47:41.732Z,11.80
2019-03-22T18:52:44.276Z,11.61
2019-03-22T18:57:50.803Z,11.45
2019-03-22T19:02:53.438Z,11.40
2019-03-22T19:07:58.509Z,11.26
2019-03-22T19:13:01.055Z,11.14
2019-03-22T19:18:04.003Z,11.12
2019-03-22T19:23:06.574Z,10.96
2019-03-22T19:28:09.243Z,10.72
2019-03-22T19:33:14.045Z,10.44
2019-03-22T19:38:16.592Z,10.35
2019-03-22T19:43:19.154Z,10.31
2019-03-22T19:48:22.023Z,9.84
2019-03-22T19:53:25.056Z,9.42
2019-03-22T19:58:32.119Z,9.21
2019-03-22T20:03:34.893Z,9.42
2019-03-22T20:08:37.884Z,9.38
2019-03-22T20:13:40.456Z,9.83
2019-03-22T20:18:43.151Z,9.35
2019-03-22T20:23:53.318Z,9.44
2019-03-22T20:28:50.553Z,9.53
2019-03-22T20:33:53.185Z,9.43
2019-03-22T20:38:58.168Z,9.44
2019-03-22T20:44:00.815Z,9.40
2019-03-22T20:49:05.259Z,9.36
2019-03-22T20:54:07.812Z,9.87
2019-03-22T20:59:10.717Z,9.83
2019-03-22T21:04:13.582Z,9.73
2019-03-22T21:09:21.829Z,9.90
2019-03-22T21:14:26.149Z,9.50
2019-03-22T21:19:32.647Z,9.67
2019-03-22T21:24:35.982Z,10.26
2019-03-22T21:29:44.312Z,9.96
2019-03-22T21:34:45.453Z,9.71
2019-03-22T21:39:48.139Z,10.18
2019-03-22T21:44:51.581Z,9.84
2019-03-22T21:49:54.988Z,9.91
2019-03-22T21:54:57.508Z,9.92
2019-03-22T22:00:00.390Z,10.03
2019-03-22T22:05:03.319Z,10.02
2019-03-22T22:10:09.016Z,10.09
2019-03-22T22:15:13.391Z,10.11
2019-03-22T22:20:16.155Z,10.40
2019-03-22T22:25:18.709Z,10.46
2019-03-22T22:30:21.929Z,10.50
2019-03-22T22:35:26.633Z,10.42
2019-03-22T22:40:29.201Z,10.19
2019-03-22T22:45:31.817Z,10.59
2019-03-22T22:50:35.009Z,10.78
2019-03-22T22:55:37.953Z,10.36
2019-03-22T23:00:41.010Z,10.49
2019-03-22T23:05:43.728Z,10.74
2019-03-22T23:10:51.476Z,10.83
2019-03-22T23:15:58.810Z,10.66
2019-03-22T23:21:03.703Z,10.82
2019-03-22T23:26:06.257Z,10.81
2019-03-22T23:31:10.287Z,10.95
2019-03-22T23:36:20.288Z,10.90
2019-03-22T23:41:17.331Z,10.98
2019-03-22T23:46:19.859Z,10.91
2019-03-22T23:51:22.536Z,10.82
2019-03-22T23:56:25.079Z,10.71
